»·PEaware :: N32FD KAJO-KVCV

N32FD :: KAJO-KVCV

FLIGHT INFORMATION

Flight Status: Arrived
Operator: Privately registered:
United States
More flights under this callsign
Pilot: Joe C. (32102)
Aircraft: AERMACCHI WARRIOR
(F260)
More flights by this aircraft type
Origin: KAJO Corona Mun
United States
Destination: KVCV Socal Logistics
United States
More flights between these airports :: More routes between these airports
Route: PDZ V442 APLES
File this flight plan on PilotEdge
Remarks:
Altitude:
(Current/Filed)
11,000ft
Speed:
(Current/Filed)
170kts
Departed: 13-Jan-21 08:11 PM
Arrived: 13-Jan-21 09:03 PM
Distance/Time
Traveled:
42nm/0:52
Distance/Time
To Go:
Arrived

Flight Plot

Page will automatically refresh every two minutes.


Map Options




Map Legend


Flown Route
Filed Route
Departure Airport
Arrival Airport
Navaid (VOR, NDB)
Fix

Horizontal Profiles

Position Reports

Time Latitude Longitude Heading Altitude Ground
Speed
13-Jan-21 19:50 33.896820 -117.606163 95 536ft 0kts
13-Jan-21 19:51 33.896820 -117.606163 95 536ft 0kts
13-Jan-21 19:52 33.896820 -117.606163 95 536ft 0kts
13-Jan-21 19:53 33.896820 -117.606163 95 536ft 0kts
13-Jan-21 19:54 33.896820 -117.606163 95 536ft 0kts
13-Jan-21 19:55 33.896820 -117.606163 95 536ft 0kts
13-Jan-21 19:56 33.896820 -117.606163 95 536ft 0kts
13-Jan-21 19:57 33.896820 -117.606163 95 536ft 0kts
13-Jan-21 19:58 33.896820 -117.606163 95 536ft 0kts
13-Jan-21 19:59 33.896820 -117.606163 95 536ft 0kts
13-Jan-21 20:00 33.896927 -117.605512 64 536ft 0kts
13-Jan-21 20:01 33.896927 -117.605512 64 536ft 0kts
13-Jan-21 20:02 33.896927 -117.605512 64 536ft 0kts
13-Jan-21 20:03 33.896927 -117.605512 64 536ft 0kts
13-Jan-21 20:04 33.897066 -117.605415 23 536ft 6kts
13-Jan-21 20:05 33.897260 -117.601793 87 536ft 21kts
13-Jan-21 20:06 33.897313 -117.597709 85 536ft 0kts
13-Jan-21 20:07 33.897313 -117.597709 85 536ft 0kts
13-Jan-21 20:08 33.897313 -117.597709 85 536ft 0kts
13-Jan-21 20:09 33.897530 -117.597542 350 536ft 10kts
13-Jan-21 20:10 33.903981 -117.615227 4 1275ft 88kts
13-Jan-21 20:11 33.912407 -117.586590 80 2641ft 109kts
13-Jan-21 20:12 33.916054 -117.548235 79 3958ft 124kts
13-Jan-21 20:13 33.931112 -117.509857 41 4696ft 143kts
13-Jan-21 20:14 33.964525 -117.485178 330 4989ft 158kts
13-Jan-21 20:15 33.940009 -117.506001 183 4991ft 174kts
13-Jan-21 20:16 33.912603 -117.549212 286 5005ft 166kts
13-Jan-21 20:17 33.947454 -117.542522 45 5028ft 167kts
13-Jan-21 20:18 33.976265 -117.501585 73 5487ft 157kts
13-Jan-21 20:19 33.948742 -117.492501 228 6023ft 150kts
13-Jan-21 20:20 33.919187 -117.527259 226 6681ft 144kts
13-Jan-21 20:21 33.934631 -117.543353 41 7376ft 132kts
13-Jan-21 20:22 33.955141 -117.510329 29 8294ft 117kts
13-Jan-21 20:23 33.984886 -117.488981 24 8944ft 130kts
13-Jan-21 20:24 34.020562 -117.466727 24 9016ft 152kts
13-Jan-21 20:25 34.059464 -117.442665 24 9006ft 162kts
13-Jan-21 20:26 34.098989 -117.418165 24 9290ft 149kts
13-Jan-21 20:27 34.131991 -117.396189 28 9982ft 129kts
13-Jan-21 20:28 34.161501 -117.376869 22 10698ft 114kts
13-Jan-21 20:29 34.190507 -117.359656 22 11099ft 126kts
13-Jan-21 20:30 34.226212 -117.338603 22 11107ft 152kts
13-Jan-21 20:31 34.265862 -117.316119 22 11113ft 160kts
13-Jan-21 20:32 34.306480 -117.293601 21 11103ft 158kts
13-Jan-21 20:33 34.347670 -117.271168 21 10746ft 173kts
13-Jan-21 20:34 34.393295 -117.247163 21 9952ft 181kts
13-Jan-21 20:35 34.439845 -117.222145 23 9159ft 185kts
13-Jan-21 20:36 34.485695 -117.194156 25 8358ft 184kts
13-Jan-21 20:37 34.529486 -117.165322 26 8014ft 171kts
13-Jan-21 20:38 34.572283 -117.144252 11 7949ft 168kts
13-Jan-21 20:39 34.620109 -117.137708 0 7363ft 176kts
13-Jan-21 20:40 34.667179 -117.150712 337 6763ft 173kts
13-Jan-21 20:41 34.705078 -117.181064 320 6613ft 152kts
13-Jan-21 20:42 34.732769 -117.218244 310 6617ft 146kts
13-Jan-21 20:43 34.755156 -117.259016 304 6613ft 140kts
13-Jan-21 20:44 34.775180 -117.298874 303 6472ft 145kts
13-Jan-21 20:45 34.787303 -117.350040 255 5591ft 173kts
13-Jan-21 20:46 34.749405 -117.372509 192 4910ft 132kts
13-Jan-21 20:47 34.719903 -117.378542 189 4307ft 87kts
13-Jan-21 20:48 34.694365 -117.380617 184 4409ft 97kts
13-Jan-21 20:49 34.666845 -117.383875 180 3879ft 97kts
13-Jan-21 20:50 34.639494 -117.386110 184 3213ft 91kts
13-Jan-21 20:51 34.614422 -117.388944 214 3726ft 93kts
13-Jan-21 20:52 34.612473 -117.417955 286 4860ft 102kts
13-Jan-21 20:53 34.621483 -117.453559 283 5968ft 120kts
13-Jan-21 20:54 34.626223 -117.501744 277 5988ft 161kts
13-Jan-21 20:55 34.651550 -117.514610 60 5959ft 169kts
13-Jan-21 20:56 34.680640 -117.468568 36 5538ft 172kts
13-Jan-21 20:57 34.707265 -117.425920 107 5124ft 191kts
13-Jan-21 20:58 34.672806 -117.387311 186 3476ft 143kts
13-Jan-21 20:59 34.643260 -117.387163 180 3219ft 102kts
13-Jan-21 21:00 34.615169 -117.386714 179 2859ft 97kts
13-Jan-21 21:01 34.591132 -117.386537 179 2864ft 56kts
13-Jan-21 21:02 34.580696 -117.386250 146 2886ft 15kts

Navigation Log

Ident Type
Flight plan parsing failed, navigation log unavailable